sensor_id;sensor_type;location;lat;lon;timestamp;pressure;altitude;pressure_sealevel;temperature;humidity
6343;BME280;3204;42.698;23.298;2023-05-16T00:01:55;94595.41;;;15.24;94.28
6343;BME280;3204;42.698;23.298;2023-05-16T00:04:21;94594.00;;;15.30;94.07
6343;BME280;3204;42.698;23.298;2023-05-16T00:06:47;94590.09;;;15.16;94.62
6343;BME280;3204;42.698;23.298;2023-05-16T00:09:13;94578.91;;;15.21;94.40
6343;BME280;3204;42.698;23.298;2023-05-16T00:11:39;94585.06;;;15.18;94.90
6343;BME280;3204;42.698;23.298;2023-05-16T00:14:04;94585.75;;;15.15;94.72
6343;BME280;3204;42.698;23.298;2023-05-16T00:16:30;94572.22;;;15.06;95.55
6343;BME280;3204;42.698;23.298;2023-05-16T00:18:55;94576.69;;;15.11;95.98
6343;BME280;3204;42.698;23.298;2023-05-16T00:21:25;94576.31;;;15.12;95.85
6343;BME280;3204;42.698;23.298;2023-05-16T00:23:50;94575.06;;;15.10;95.62
6343;BME280;3204;42.698;23.298;2023-05-16T00:26:17;94583.00;;;15.15;95.64
6343;BME280;3204;42.698;23.298;2023-05-16T00:28:42;94583.81;;;15.15;95.80
6343;BME280;3204;42.698;23.298;2023-05-16T00:31:08;94572.78;;;15.12;95.56
6343;BME280;3204;42.698;23.298;2023-05-16T00:33:34;94570.97;;;15.16;95.97
6343;BME280;3204;42.698;23.298;2023-05-16T00:35:59;94568.34;;;15.19;95.43
6343;BME280;3204;42.698;23.298;2023-05-16T00:38:25;94568.00;;;15.09;96.04
6343;BME280;3204;42.698;23.298;2023-05-16T00:40:50;94567.16;;;15.32;94.84
6343;BME280;3204;42.698;23.298;2023-05-16T00:43:16;94554.34;;;15.21;94.85
6343;BME280;3204;42.698;23.298;2023-05-16T00:45:42;94559.22;;;15.27;94.35
6343;BME280;3204;42.698;23.298;2023-05-16T00:48:08;94552.81;;;15.35;93.99
6343;BME280;3204;42.698;23.298;2023-05-16T00:50:35;94542.34;;;15.25;94.32
6343;BME280;3204;42.698;23.298;2023-05-16T00:53:01;94541.03;;;15.07;95.15
6343;BME280;3204;42.698;23.298;2023-05-16T00:55:26;94534.91;;;15.10;95.75
6343;BME280;3204;42.698;23.298;2023-05-16T00:57:52;94525.69;;;15.03;95.44
6343;BME280;3204;42.698;23.298;2023-05-16T01:00:18;94533.47;;;15.01;95.70
6343;BME280;3204;42.698;23.298;2023-05-16T01:02:44;94538.47;;;14.99;96.39
6343;BME280;3204;42.698;23.298;2023-05-16T01:05:10;94532.25;;;14.86;97.37
6343;BME280;3204;42.698;23.298;2023-05-16T01:07:36;94530.06;;;14.92;97.00
6343;BME280;3204;42.698;23.298;2023-05-16T01:10:02;94532.44;;;14.93;96.93
6343;BME280;3204;42.698;23.298;2023-05-16T01:12:36;94532.75;;;15.04;96.39
6343;BME280;3204;42.698;23.298;2023-05-16T01:15:22;94531.34;;;15.10;95.88
6343;BME280;3204;42.698;23.298;2023-05-16T01:28:45;94522.31;;;14.94;96.48
6343;BME280;3204;42.698;23.298;2023-05-16T01:31:11;94525.88;;;14.82;97.14
6343;BME280;3204;42.698;23.298;2023-05-16T01:33:36;94510.50;;;14.90;97.04
6343;BME280;3204;42.698;23.298;2023-05-16T01:36:08;94515.03;;;14.86;97.72
6343;BME280;3204;42.698;23.298;2023-05-16T01:38:39;94504.41;;;14.69;98.76
6343;BME280;3204;42.698;23.298;2023-05-16T01:41:33;94493.59;;;14.72;98.64
6343;BME280;3204;42.698;23.298;2023-05-16T01:44:07;94494.28;;;14.69;98.94
6343;BME280;3204;42.698;23.298;2023-05-16T01:46:37;94485.00;;;14.86;97.86
6343;BME280;3204;42.698;23.298;2023-05-16T01:49:07;94496.88;;;14.78;97.82
6343;BME280;3204;42.698;23.298;2023-05-16T01:51:38;94482.47;;;14.65;98.89
6343;BME280;3204;42.698;23.298;2023-05-16T01:54:10;94486.09;;;14.69;98.38
6343;BME280;3204;42.698;23.298;2023-05-16T01:56:36;94485.50;;;14.76;97.29
6343;BME280;3204;42.698;23.298;2023-05-16T01:59:03;94479.13;;;14.72;97.46
6343;BME280;3204;42.698;23.298;2023-05-16T02:01:29;94488.44;;;14.83;96.70
6343;BME280;3204;42.698;23.298;2023-05-16T02:03:56;94485.25;;;14.81;95.52
6343;BME280;3204;42.698;23.298;2023-05-16T02:06:22;94483.19;;;14.90;95.13
6343;BME280;3204;42.698;23.298;2023-05-16T02:08:48;94489.63;;;14.97;94.44
6343;BME280;3204;42.698;23.298;2023-05-16T02:11:14;94487.72;;;14.98;94.29
6343;BME280;3204;42.698;23.298;2023-05-16T02:13:39;94491.38;;;14.90;94.71
6343;BME280;3204;42.698;23.298;2023-05-16T02:16:05;94478.13;;;15.04;93.84
6343;BME280;3204;42.698;23.298;2023-05-16T02:18:30;94485.16;;;15.05;93.11
6343;BME280;3204;42.698;23.298;2023-05-16T02:20:56;94485.38;;;15.12;93.26
6343;BME280;3204;42.698;23.298;2023-05-16T02:23:21;94476.88;;;15.01;93.71
6343;BME280;3204;42.698;23.298;2023-05-16T02:25:46;94476.44;;;14.99;93.43
6343;BME280;3204;42.698;23.298;2023-05-16T02:28:12;94466.78;;;14.90;94.52
6343;BME280;3204;42.698;23.298;2023-05-16T02:30:38;94471.50;;;15.05;94.00
6343;BME280;3204;42.698;23.298;2023-05-16T02:33:03;94483.00;;;15.10;93.23
6343;BME280;3204;42.698;23.298;2023-05-16T02:35:28;94484.97;;;14.98;93.82
6343;BME280;3204;42.698;23.298;2023-05-16T02:37:55;94480.75;;;15.00;93.70
6343;BME280;3204;42.698;23.298;2023-05-16T02:40:20;94498.38;;;15.03;93.42
6343;BME280;3204;42.698;23.298;2023-05-16T02:42:46;94491.03;;;14.91;94.17
6343;BME280;3204;42.698;23.298;2023-05-16T02:45:11;94498.53;;;14.94;93.59
6343;BME280;3204;42.698;23.298;2023-05-16T02:47:37;94483.34;;;14.81;94.69
6343;BME280;3204;42.698;23.298;2023-05-16T02:50:02;94490.03;;;14.84;94.73
6343;BME280;3204;42.698;23.298;2023-05-16T02:52:28;94480.84;;;15.04;93.76
6343;BME280;3204;42.698;23.298;2023-05-16T02:54:54;94471.66;;;14.96;93.84
6343;BME280;3204;42.698;23.298;2023-05-16T02:57:19;94470.13;;;14.83;94.74
6343;BME280;3204;42.698;23.298;2023-05-16T02:59:45;94468.19;;;14.84;94.62
6343;BME280;3204;42.698;23.298;2023-05-16T03:02:10;94471.34;;;14.86;95.06
6343;BME280;3204;42.698;23.298;2023-05-16T03:04:36;94467.28;;;14.80;95.75
6343;BME280;3204;42.698;23.298;2023-05-16T03:07:01;94466.63;;;14.83;95.62
6343;BME280;3204;42.698;23.298;2023-05-16T03:09:27;94465.81;;;14.82;95.47
6343;BME280;3204;42.698;23.298;2023-05-16T03:11:52;94465.13;;;14.85;95.92
6343;BME280;3204;42.698;23.298;2023-05-16T03:14:18;94465.47;;;14.84;96.17
6343;BME280;3204;42.698;23.298;2023-05-16T03:16:43;94464.78;;;14.87;96.08
6343;BME280;3204;42.698;23.298;2023-05-16T03:19:09;94467.50;;;15.14;93.34
6343;BME280;3204;42.698;23.298;2023-05-16T03:21:35;94472.91;;;14.99;94.00
6343;BME280;3204;42.698;23.298;2023-05-16T03:24:04;94468.03;;;14.92;94.41
6343;BME280;3204;42.698;23.298;2023-05-16T03:26:30;94466.03;;;14.89;95.20
6343;BME280;3204;42.698;23.298;2023-05-16T03:28:55;94465.22;;;14.89;95.35
6343;BME280;3204;42.698;23.298;2023-05-16T03:31:21;94466.38;;;14.88;95.17
6343;BME280;3204;42.698;23.298;2023-05-16T03:33:46;94466.63;;;14.83;95.59
6343;BME280;3204;42.698;23.298;2023-05-16T03:36:12;94460.69;;;14.81;96.48
6343;BME280;3204;42.698;23.298;2023-05-16T03:38:37;94465.47;;;14.84;96.38
6343;BME280;3204;42.698;23.298;2023-05-16T03:41:03;94460.44;;;14.86;96.38
6343;BME280;3204;42.698;23.298;2023-05-16T03:43:28;94461.94;;;14.83;96.40
6343;BME280;3204;42.698;23.298;2023-05-16T03:45:54;94461.94;;;14.83;96.56
6343;BME280;3204;42.698;23.298;2023-05-16T03:48:20;94463.06;;;14.82;96.41
6343;BME280;3204;42.698;23.298;2023-05-16T03:50:46;94469.78;;;14.85;96.29
6343;BME280;3204;42.698;23.298;2023-05-16T03:53:12;94461.69;;;14.88;96.45
6343;BME280;3204;42.698;23.298;2023-05-16T03:55:37;94462.22;;;14.94;96.09
6343;BME280;3204;42.698;23.298;2023-05-16T03:58:03;94458.84;;;14.85;96.63
6343;BME280;3204;42.698;23.298;2023-05-16T04:00:29;94457.97;;;14.81;96.64
6343;BME280;3204;42.698;23.298;2023-05-16T04:02:55;94459.91;;;14.80;97.08
6343;BME280;3204;42.698;23.298;2023-05-16T04:05:21;94463.06;;;14.82;96.83
6343;BME280;3204;42.698;23.298;2023-05-16T04:07:46;94459.31;;;14.87;96.55
6343;BME280;3204;42.698;23.298;2023-05-16T04:10:12;94452.25;;;14.86;96.45
6343;BME280;3204;42.698;23.298;2023-05-16T04:12:38;94459.56;;;14.82;96.45
6343;BME280;3204;42.698;23.298;2023-05-16T04:15:04;94463.53;;;14.84;96.29
6343;BME280;3204;42.698;23.298;2023-05-16T04:17:30;94466.47;;;14.91;96.14
6343;BME280;3204;42.698;23.298;2023-05-16T04:19:56;94470.97;;;14.99;95.53
6343;BME280;3204;42.698;23.298;2023-05-16T04:22:22;94465.69;;;15.34;93.05
6343;BME280;3204;42.698;23.298;2023-05-16T04:24:48;94471.78;;;15.27;92.46
6343;BME280;3204;42.698;23.298;2023-05-16T04:27:13;94470.56;;;15.13;93.06
6343;BME280;3204;42.698;23.298;2023-05-16T04:29:39;94472.63;;;15.16;92.97
6343;BME280;3204;42.698;23.298;2023-05-16T04:32:05;94459.03;;;15.19;92.69
6343;BME280;3204;42.698;23.298;2023-05-16T04:34:32;94458.44;;;15.26;92.44
6343;BME280;3204;42.698;23.298;2023-05-16T04:36:58;94466.19;;;15.24;92.37
6343;BME280;3204;42.698;23.298;2023-05-16T04:39:24;94449.19;;;15.30;91.67
6343;BME280;3204;42.698;23.298;2023-05-16T04:41:50;94464.31;;;15.40;90.95
6343;BME280;3204;42.698;23.298;2023-05-16T04:44:15;94460.69;;;15.36;91.09
6343;BME280;3204;42.698;23.298;2023-05-16T04:46:41;94453.50;;;15.31;91.94
6343;BME280;3204;42.698;23.298;2023-05-16T04:49:07;94457.03;;;15.32;91.95
6343;BME280;3204;42.698;23.298;2023-05-16T04:51:32;94455.94;;;15.48;91.05
6343;BME280;3204;42.698;23.298;2023-05-16T04:53:59;94464.69;;;15.54;90.99
6343;BME280;3204;42.698;23.298;2023-05-16T04:56:24;94465.47;;;15.54;90.66
6343;BME280;3204;42.698;23.298;2023-05-16T04:58:51;94453.03;;;15.57;91.18
6343;BME280;3204;42.698;23.298;2023-05-16T05:01:16;94456.38;;;15.50;91.10
6343;BME280;3204;42.698;23.298;2023-05-16T05:03:42;94457.22;;;15.66;89.58
6343;BME280;3204;42.698;23.298;2023-05-16T05:06:08;94459.94;;;15.66;89.67
6343;BME280;3204;42.698;23.298;2023-05-16T05:08:33;94457.00;;;15.59;89.41
6343;BME280;3204;42.698;23.298;2023-05-16T05:10:59;94465.66;;;15.61;89.56
6343;BME280;3204;42.698;23.298;2023-05-16T05:13:24;94470.75;;;16.25;92.07
6343;BME280;3204;42.698;23.298;2023-05-16T05:15:50;94476.69;;;17.15;88.46
6343;BME280;3204;42.698;23.298;2023-05-16T05:18:16;94479.34;;;18.17;85.09
6343;BME280;3204;42.698;23.298;2023-05-16T05:20:42;94483.69;;;18.18;79.48
6343;BME280;3204;42.698;23.298;2023-05-16T05:23:08;94478.03;;;18.08;79.96
6343;BME280;3204;42.698;23.298;2023-05-16T05:25:35;94482.53;;;18.19;79.62
6343;BME280;3204;42.698;23.298;2023-05-16T05:28:00;94482.88;;;17.50;79.75
6343;BME280;3204;42.698;23.298;2023-05-16T05:30:26;94472.81;;;16.63;83.44
6343;BME280;3204;42.698;23.298;2023-05-16T05:32:51;94469.97;;;16.24;85.76
6343;BME280;3204;42.698;23.298;2023-05-16T05:35:17;94460.63;;;16.10;86.41
6343;BME280;3204;42.698;23.298;2023-05-16T05:37:43;94455.16;;;16.10;86.62
6343;BME280;3204;42.698;23.298;2023-05-16T05:40:09;94446.16;;;15.94;87.34
6343;BME280;3204;42.698;23.298;2023-05-16T05:42:35;94448.34;;;15.88;87.86
6343;BME280;3204;42.698;23.298;2023-05-16T05:45:00;94436.03;;;15.94;87.93
6343;BME280;3204;42.698;23.298;2023-05-16T05:47:26;94439.81;;;15.90;88.05
6343;BME280;3204;42.698;23.298;2023-05-16T05:49:51;94439.03;;;15.89;87.99
6343;BME280;3204;42.698;23.298;2023-05-16T05:52:17;94440.44;;;15.83;88.41
6343;BME280;3204;42.698;23.298;2023-05-16T05:54:42;94434.97;;;15.68;89.55
6343;BME280;3204;42.698;23.298;2023-05-16T05:57:07;94436.84;;;15.79;89.41
6343;BME280;3204;42.698;23.298;2023-05-16T05:59:33;94436.13;;;15.82;89.71
6343;BME280;3204;42.698;23.298;2023-05-16T06:01:58;94437.06;;;15.90;89.40
6343;BME280;3204;42.698;23.298;2023-05-16T06:04:24;94435.50;;;15.89;89.68
6343;BME280;3204;42.698;23.298;2023-05-16T06:06:50;94437.19;;;15.78;89.77
6343;BME280;3204;42.698;23.298;2023-05-16T06:09:16;94438.41;;;15.96;89.25
6343;BME280;3204;42.698;23.298;2023-05-16T06:11:42;94435.69;;;15.80;90.29
6343;BME280;3204;42.698;23.298;2023-05-16T06:14:09;94433.66;;;15.77;90.61
6343;BME280;3204;42.698;23.298;2023-05-16T06:16:35;94436.66;;;15.88;89.80
6343;BME280;3204;42.698;23.298;2023-05-16T06:19:00;94442.66;;;15.78;90.20
6343;BME280;3204;42.698;23.298;2023-05-16T06:21:25;94443.88;;;15.80;90.14
6343;BME280;3204;42.698;23.298;2023-05-16T06:23:51;94436.56;;;15.84;90.41
6343;BME280;3204;42.698;23.298;2023-05-16T06:26:16;94438.50;;;15.84;90.57
6343;BME280;3204;42.698;23.298;2023-05-16T06:28:42;94437.81;;;15.87;90.31
6343;BME280;3204;42.698;23.298;2023-05-16T06:31:07;94440.59;;;16.06;89.07
6343;BME280;3204;42.698;23.298;2023-05-16T06:33:33;94432.81;;;16.08;88.92
6343;BME280;3204;42.698;23.298;2023-05-16T06:35:59;94437.69;;;15.99;88.29
6343;BME280;3204;42.698;23.298;2023-05-16T06:38:24;94435.16;;;15.90;88.92
6343;BME280;3204;42.698;23.298;2023-05-16T06:40:50;94425.84;;;15.95;89.19
6343;BME280;3204;42.698;23.298;2023-05-16T06:43:16;94403.81;;;15.88;89.21
6343;BME280;3204;42.698;23.298;2023-05-16T06:45:43;94420.50;;;15.83;88.88
6343;BME280;3204;42.698;23.298;2023-05-16T06:48:09;94431.88;;;15.85;89.71
6343;BME280;3204;42.698;23.298;2023-05-16T06:50:34;94422.44;;;15.98;88.72
6343;BME280;3204;42.698;23.298;2023-05-16T06:53:00;94409.44;;;15.95;88.91
6343;BME280;3204;42.698;23.298;2023-05-16T06:55:26;94408.84;;;15.86;88.42
6343;BME280;3204;42.698;23.298;2023-05-16T06:57:51;94407.00;;;15.90;88.37
6343;BME280;3204;42.698;23.298;2023-05-16T07:00:17;94405.59;;;15.96;87.98
6343;BME280;3204;42.698;23.298;2023-05-16T07:02:42;94415.09;;;16.02;87.47
6343;BME280;3204;42.698;23.298;2023-05-16T07:05:08;94396.84;;;15.90;88.44
6343;BME280;3204;42.698;23.298;2023-05-16T07:07:34;94407.94;;;15.97;87.50
6343;BME280;3204;42.698;23.298;2023-05-16T07:09:59;94398.06;;;16.08;87.52
6343;BME280;3204;42.698;23.298;2023-05-16T07:12:25;94394.25;;;16.13;86.88
6343;BME280;3204;42.698;23.298;2023-05-16T07:14:50;94379.50;;;16.17;87.23
6343;BME280;3204;42.698;23.298;2023-05-16T07:17:17;94391.56;;;16.16;87.02
6343;BME280;3204;42.698;23.298;2023-05-16T07:19:42;94378.41;;;16.22;86.42
6343;BME280;3204;42.698;23.298;2023-05-16T07:22:08;94373.81;;;16.26;86.38
6343;BME280;3204;42.698;23.298;2023-05-16T07:24:33;94361.06;;;16.33;86.06
6343;BME280;3204;42.698;23.298;2023-05-16T07:27:00;94374.59;;;16.42;84.98
6343;BME280;3204;42.698;23.298;2023-05-16T07:29:25;94365.22;;;16.43;84.45
6343;BME280;3204;42.698;23.298;2023-05-16T07:31:51;94366.25;;;16.54;84.38
6343;BME280;3204;42.698;23.298;2023-05-16T07:34:17;94380.22;;;16.49;84.33
6343;BME280;3204;42.698;23.298;2023-05-16T07:36:42;94383.09;;;16.56;83.91
6343;BME280;3204;42.698;23.298;2023-05-16T07:39:08;94387.06;;;16.58;83.19
6343;BME280;3204;42.698;23.298;2023-05-16T07:41:33;94391.75;;;16.58;83.87
6343;BME280;3204;42.698;23.298;2023-05-16T07:43:58;94392.19;;;16.60;83.33
6343;BME280;3204;42.698;23.298;2023-05-16T07:46:24;94389.84;;;16.62;83.28
6343;BME280;3204;42.698;23.298;2023-05-16T07:48:49;94397.53;;;16.72;82.83
6343;BME280;3204;42.698;23.298;2023-05-16T07:51:15;94398.16;;;16.66;82.74
6343;BME280;3204;42.698;23.298;2023-05-16T07:53:41;94378.41;;;16.76;82.65
6343;BME280;3204;42.698;23.298;2023-05-16T07:56:06;94383.16;;;16.78;81.99
6343;BME280;3204;42.698;23.298;2023-05-16T07:58:32;94381.09;;;16.72;81.83
6343;BME280;3204;42.698;23.298;2023-05-16T08:00:58;94376.09;;;16.77;82.00
6343;BME280;3204;42.698;23.298;2023-05-16T08:03:24;94384.66;;;16.76;82.22
6343;BME280;3204;42.698;23.298;2023-05-16T08:05:49;94362.97;;;16.87;81.80
6343;BME280;3204;42.698;23.298;2023-05-16T08:08:15;94379.06;;;16.88;81.52
6343;BME280;3204;42.698;23.298;2023-05-16T08:10:41;94382.72;;;16.96;81.50
6343;BME280;3204;42.698;23.298;2023-05-16T08:13:06;94377.31;;;16.99;81.20
6343;BME280;3204;42.698;23.298;2023-05-16T08:15:32;94376.59;;;17.02;81.35
6343;BME280;3204;42.698;23.298;2023-05-16T08:17:58;94363.59;;;16.99;81.09
6343;BME280;3204;42.698;23.298;2023-05-16T08:20:24;94362.19;;;17.05;80.83
6343;BME280;3204;42.698;23.298;2023-05-16T08:22:50;94362.69;;;17.14;81.22
6343;BME280;3204;42.698;23.298;2023-05-16T08:25:16;94358.94;;;17.22;80.63
6343;BME280;3204;42.698;23.298;2023-05-16T08:27:44;94363.41;;;17.30;80.78
6343;BME280;3204;42.698;23.298;2023-05-16T08:30:10;94368.81;;;17.46;80.50
6343;BME280;3204;42.698;23.298;2023-05-16T08:32:36;94370.56;;;17.57;79.73
6343;BME280;3204;42.698;23.298;2023-05-16T08:35:02;94371.34;;;17.58;79.30
6343;BME280;3204;42.698;23.298;2023-05-16T08:37:27;94369.06;;;17.60;79.78
6343;BME280;3204;42.698;23.298;2023-05-16T08:39:53;94368.59;;;17.58;79.38
6343;BME280;3204;42.698;23.298;2023-05-16T08:42:18;94367.56;;;17.66;79.14
6343;BME280;3204;42.698;23.298;2023-05-16T08:44:44;94374.59;;;17.63;79.27
6343;BME280;3204;42.698;23.298;2023-05-16T08:47:11;94371.09;;;17.66;78.85
6343;BME280;3204;42.698;23.298;2023-05-16T08:49:39;94362.28;;;17.76;79.73
6343;BME280;3204;42.698;23.298;2023-05-16T08:52:09;94358.81;;;17.83;78.46
6343;BME280;3204;42.698;23.298;2023-05-16T08:54:36;94350.72;;;17.90;77.90
6343;BME280;3204;42.698;23.298;2023-05-16T08:57:02;94356.78;;;18.02;77.24
6343;BME280;3204;42.698;23.298;2023-05-16T08:59:30;94377.69;;;18.10;76.91
6343;BME280;3204;42.698;23.298;2023-05-16T09:01:56;94365.09;;;18.09;76.40
6343;BME280;3204;42.698;23.298;2023-05-16T09:04:21;94375.47;;;18.19;75.75
6343;BME280;3204;42.698;23.298;2023-05-16T09:06:49;94376.72;;;18.25;75.74
6343;BME280;3204;42.698;23.298;2023-05-16T09:09:15;94360.66;;;18.27;75.50
6343;BME280;3204;42.698;23.298;2023-05-16T09:11:41;94360.66;;;18.27;75.66
6343;BME280;3204;42.698;23.298;2023-05-16T09:14:06;94364.81;;;18.40;75.67
6343;BME280;3204;42.698;23.298;2023-05-16T09:16:31;94365.72;;;18.51;75.63
6343;BME280;3204;42.698;23.298;2023-05-16T09:18:58;94377.81;;;18.43;75.59
6343;BME280;3204;42.698;23.298;2023-05-16T09:21:27;94385.25;;;18.43;75.61
6343;BME280;3204;42.698;23.298;2023-05-16T09:23:53;94377.03;;;18.46;76.12
6343;BME280;3204;42.698;23.298;2023-05-16T09:26:19;94385.47;;;18.60;75.53
6343;BME280;3204;42.698;23.298;2023-05-16T09:28:46;94377.75;;;18.69;74.77
6343;BME280;3204;42.698;23.298;2023-05-16T09:31:22;94372.00;;;18.48;75.21
6343;BME280;3204;42.698;23.298;2023-05-16T09:33:56;94372.00;;;18.48;75.94
6343;BME280;3204;42.698;23.298;2023-05-16T09:36:22;94358.94;;;18.42;75.71
6343;BME280;3204;42.698;23.298;2023-05-16T09:38:50;94339.69;;;18.38;75.75
6343;BME280;3204;42.698;23.298;2023-05-16T09:41:15;94353.91;;;18.47;75.42
6343;BME280;3204;42.698;23.298;2023-05-16T09:43:41;94350.06;;;18.52;75.09
6343;BME280;3204;42.698;23.298;2023-05-16T09:46:08;94350.09;;;18.55;74.47
6343;BME280;3204;42.698;23.298;2023-05-16T09:48:36;94355.69;;;18.62;74.24
6343;BME280;3204;42.698;23.298;2023-05-16T09:51:06;94349.94;;;18.74;73.98
6343;BME280;3204;42.698;23.298;2023-05-16T09:53:32;94343.22;;;18.72;74.03
6343;BME280;3204;42.698;23.298;2023-05-16T09:56:10;94352.66;;;18.71;73.73
6343;BME280;3204;42.698;23.298;2023-05-16T09:58:38;94327.44;;;18.65;73.96
6343;BME280;3204;42.698;23.298;2023-05-16T10:01:04;94330.63;;;18.67;73.78
6343;BME280;3204;42.698;23.298;2023-05-16T10:03:33;94328.38;;;18.76;73.98
6343;BME280;3204;42.698;23.298;2023-05-16T10:05:59;94337.00;;;18.75;73.44
6343;BME280;3204;42.698;23.298;2023-05-16T10:08:26;94335.00;;;18.72;73.79
6343;BME280;3204;42.698;23.298;2023-05-16T10:10:53;94340.97;;;18.77;73.95
6343;BME280;3204;42.698;23.298;2023-05-16T10:13:27;94349.69;;;18.86;73.43
6343;BME280;3204;42.698;23.298;2023-05-16T10:15:55;94348.19;;;18.92;73.17
6343;BME280;3204;42.698;23.298;2023-05-16T10:18:25;94351.34;;;18.94;73.57
6343;BME280;3204;42.698;23.298;2023-05-16T10:20:54;94348.84;;;18.79;73.44
6343;BME280;3204;42.698;23.298;2023-05-16T10:23:20;94371.34;;;18.91;73.75
6343;BME280;3204;42.698;23.298;2023-05-16T10:25:48;94356.81;;;18.91;73.41
6343;BME280;3204;42.698;23.298;2023-05-16T10:28:14;94357.97;;;18.90;73.34
6343;BME280;3204;42.698;23.298;2023-05-16T10:30:41;94360.72;;;18.90;73.24
6343;BME280;3204;42.698;23.298;2023-05-16T10:33:10;94334.84;;;18.94;73.53
6343;BME280;3204;42.698;23.298;2023-05-16T10:35:36;94340.28;;;18.87;73.94
6343;BME280;3204;42.698;23.298;2023-05-16T10:38:02;94328.94;;;18.92;73.95
6343;BME280;3204;42.698;23.298;2023-05-16T10:40:29;94327.81;;;18.97;73.94
6343;BME280;3204;42.698;23.298;2023-05-16T10:42:56;94325.13;;;19.00;74.20
6343;BME280;3204;42.698;23.298;2023-05-16T10:45:22;94307.91;;;19.07;74.56
6343;BME280;3204;42.698;23.298;2023-05-16T10:47:55;94291.56;;;18.84;75.20
6343;BME280;3204;42.698;23.298;2023-05-16T10:50:43;94301.09;;;18.94;75.34
6343;BME280;3204;42.698;23.298;2023-05-16T10:53:29;94304.72;;;19.01;75.40
6343;BME280;3204;42.698;23.298;2023-05-16T10:58:38;94294.06;;;18.96;75.88
6343;BME280;3204;42.698;23.298;2023-05-16T11:06:31;94298.38;;;18.97;75.10
6343;BME280;3204;42.698;23.298;2023-05-16T11:19:45;94342.28;;;18.90;75.81
6343;BME280;3204;42.698;23.298;2023-05-16T11:22:33;94358.78;;;18.90;76.52
6343;BME280;3204;42.698;23.298;2023-05-16T11:25:07;94359.19;;;18.92;76.51
6343;BME280;3204;42.698;23.298;2023-05-16T11:32:33;94339.06;;;19.18;76.90
6343;BME280;3204;42.698;23.298;2023-05-16T11:34:59;94339.03;;;19.14;76.51
6343;BME280;3204;42.698;23.298;2023-05-16T11:37:26;94326.50;;;19.20;76.54
6343;BME280;3204;42.698;23.298;2023-05-16T11:39:52;94334.09;;;19.30;76.04
6343;BME280;3204;42.698;23.298;2023-05-16T11:42:19;94321.09;;;19.27;76.34
6343;BME280;3204;42.698;23.298;2023-05-16T11:44:45;94328.06;;;19.21;76.15
6343;BME280;3204;42.698;23.298;2023-05-16T11:47:10;94336.63;;;19.09;75.97
6343;BME280;3204;42.698;23.298;2023-05-16T11:49:36;94331.16;;;19.13;76.32
6343;BME280;3204;42.698;23.298;2023-05-16T11:52:03;94323.22;;;19.04;76.95
6343;BME280;3204;42.698;23.298;2023-05-16T11:54:29;94323.22;;;19.04;77.34
6343;BME280;3204;42.698;23.298;2023-05-16T11:56:55;94331.88;;;19.10;77.63
6343;BME280;3204;42.698;23.298;2023-05-16T11:59:21;94331.97;;;19.17;77.72
6343;BME280;3204;42.698;23.298;2023-05-16T12:01:46;94313.78;;;19.45;77.07
6343;BME280;3204;42.698;23.298;2023-05-16T12:04:15;94316.28;;;19.61;76.67
6343;BME280;3204;42.698;23.298;2023-05-16T12:06:41;94301.09;;;19.77;75.56
6343;BME280;3204;42.698;23.298;2023-05-16T12:09:13;94298.78;;;19.83;74.72
6343;BME280;3204;42.698;23.298;2023-05-16T12:11:40;94299.44;;;19.69;74.19
6343;BME280;3204;42.698;23.298;2023-05-16T12:14:07;94283.84;;;19.84;73.94
6343;BME280;3204;42.698;23.298;2023-05-16T12:16:34;94287.00;;;19.89;73.53
6343;BME280;3204;42.698;23.298;2023-05-16T12:19:01;94299.28;;;19.99;73.28
6343;BME280;3204;42.698;23.298;2023-05-16T12:21:30;94297.03;;;20.15;72.77
6343;BME280;3204;42.698;23.298;2023-05-16T12:23:56;94297.84;;;20.15;72.26
6343;BME280;3204;42.698;23.298;2023-05-16T12:26:27;94291.97;;;20.20;72.27
6343;BME280;3204;42.698;23.298;2023-05-16T12:28:59;94296.81;;;20.44;72.14
6343;BME280;3204;42.698;23.298;2023-05-16T12:31:27;94287.81;;;20.54;71.56
6343;BME280;3204;42.698;23.298;2023-05-16T12:33:55;94296.81;;;20.44;71.66
6343;BME280;3204;42.698;23.298;2023-05-16T12:36:24;94294.44;;;20.46;71.28
6343;BME280;3204;42.698;23.298;2023-05-16T12:38:51;94295.53;;;20.24;72.29
6343;BME280;3204;42.698;23.298;2023-05-16T12:41:18;94291.56;;;20.18;73.13
6343;BME280;3204;42.698;23.298;2023-05-16T12:43:44;94282.41;;;20.07;73.27
6343;BME280;3204;42.698;23.298;2023-05-16T12:46:10;94289.56;;;20.12;72.88
6343;BME280;3204;42.698;23.298;2023-05-16T12:48:38;94290.38;;;20.19;72.47
6343;BME280;3204;42.698;23.298;2023-05-16T12:51:17;94286.00;;;20.11;72.60
6343;BME280;3204;42.698;23.298;2023-05-16T12:53:46;94285.63;;;20.13;72.64
6343;BME280;3204;42.698;23.298;2023-05-16T12:56:12;94297.47;;;20.24;73.89
6343;BME280;3204;42.698;23.298;2023-05-16T12:58:40;94295.06;;;20.12;74.21
6343;BME280;3204;42.698;23.298;2023-05-16T13:01:05;94293.41;;;20.07;74.39
6343;BME280;3204;42.698;23.298;2023-05-16T13:03:31;94300.47;;;20.01;74.61
6343;BME280;3204;42.698;23.298;2023-05-16T13:05:57;94313.94;;;20.10;74.24
6343;BME280;3204;42.698;23.298;2023-05-16T13:08:24;94300.19;;;20.13;73.24
6343;BME280;3204;42.698;23.298;2023-05-16T13:10:50;94308.41;;;20.10;73.21
6343;BME280;3204;42.698;23.298;2023-05-16T13:13:16;94307.97;;;20.04;74.13
6343;BME280;3204;42.698;23.298;2023-05-16T13:15:43;94303.88;;;19.84;75.85
6343;BME280;3204;42.698;23.298;2023-05-16T13:18:09;94312.47;;;19.76;76.96
6343;BME280;3204;42.698;23.298;2023-05-16T13:20:34;94308.13;;;19.71;77.12
6343;BME280;3204;42.698;23.298;2023-05-16T13:23:00;94313.63;;;19.71;75.48
6343;BME280;3204;42.698;23.298;2023-05-16T13:25:25;94311.63;;;19.68;74.73
6343;BME280;3204;42.698;23.298;2023-05-16T13:27:51;94314.38;;;19.65;74.71
6343;BME280;3204;42.698;23.298;2023-05-16T13:30:16;94320.25;;;19.63;74.95
6343;BME280;3204;42.698;23.298;2023-05-16T13:32:42;94316.31;;;19.64;75.06
6343;BME280;3204;42.698;23.298;2023-05-16T13:35:07;94311.91;;;19.56;74.58
6343;BME280;3204;42.698;23.298;2023-05-16T13:37:35;94308.88;;;19.65;75.07
6343;BME280;3204;42.698;23.298;2023-05-16T13:40:01;94312.53;;;19.36;75.17
6343;BME280;3204;42.698;23.298;2023-05-16T13:42:26;94314.56;;;19.42;76.43